createdAt,value
2022-12-08T00:01:34.104Z,8.00
2022-12-08T00:04:03.559Z,9.07
2022-12-08T00:06:55.160Z,8.30
2022-12-08T00:09:32.020Z,7.43
2022-12-08T00:12:11.059Z,7.27
2022-12-08T00:14:47.524Z,6.80
2022-12-08T00:17:16.841Z,7.17
2022-12-08T00:19:45.208Z,6.63
2022-12-08T00:22:14.314Z,6.60
2022-12-08T00:24:44.492Z,6.40
2022-12-08T00:27:14.830Z,6.43
2022-12-08T00:29:44.961Z,6.27
2022-12-08T00:32:12.692Z,5.50
2022-12-08T00:34:40.111Z,5.90
2022-12-08T00:37:07.574Z,5.87
2022-12-08T00:39:34.876Z,5.43
2022-12-08T00:42:14.154Z,5.80
2022-12-08T00:44:46.298Z,5.90
2022-12-08T00:47:14.743Z,5.53
2022-12-08T00:49:42.494Z,5.13
2022-12-08T00:52:09.907Z,6.23
2022-12-08T00:54:37.670Z,6.47
2022-12-08T00:57:05.364Z,5.80
2022-12-08T00:59:33.237Z,5.97
2022-12-08T01:02:00.621Z,5.97
2022-12-08T01:04:28.093Z,5.80
2022-12-08T01:06:55.380Z,6.33
2022-12-08T01:09:23.116Z,6.10
2022-12-08T01:11:50.730Z,6.10
2022-12-08T01:14:18.030Z,5.97
2022-12-08T01:16:45.732Z,6.20
2022-12-08T01:19:15.124Z,6.60
2022-12-08T01:21:43.367Z,6.50
2022-12-08T01:24:16.959Z,6.00
2022-12-08T01:26:44.646Z,6.20
2022-12-08T01:29:12.676Z,6.00
2022-12-08T01:31:40.769Z,5.63
2022-12-08T01:34:09.072Z,6.37
2022-12-08T01:36:37.602Z,5.67
2022-12-08T01:39:07.447Z,5.43
2022-12-08T01:41:36.529Z,5.53
2022-12-08T01:44:13.122Z,5.43
2022-12-08T01:46:42.714Z,5.90
2022-12-08T01:49:10.184Z,6.10
2022-12-08T01:51:55.803Z,6.00
2022-12-08T01:54:27.421Z,5.83
2022-12-08T01:57:03.309Z,6.03
2022-12-08T01:59:34.137Z,5.70
2022-12-08T02:02:01.954Z,5.10
2022-12-08T02:04:29.206Z,5.63
2022-12-08T02:06:57.093Z,5.73
2022-12-08T02:09:25.318Z,5.00
2022-12-08T02:11:56.825Z,5.07
2022-12-08T02:14:24.814Z,5.30
2022-12-08T02:17:03.632Z,5.77
2022-12-08T02:19:48.926Z,6.77
2022-12-08T02:22:24.835Z,8.10
2022-12-08T02:25:17.000Z,10.40
2022-12-08T02:28:23.742Z,12.17
2022-12-08T02:30:54.212Z,17.30
2022-12-08T02:33:46.302Z,14.00
2022-12-08T02:36:39.702Z,20.77
2022-12-08T02:39:28.907Z,21.90
2022-12-08T02:42:33.984Z,18.77
2022-12-08T02:45:08.103Z,17.40
2022-12-08T02:47:35.876Z,17.97
2022-12-08T02:50:03.889Z,17.40
2022-12-08T02:52:31.344Z,13.63
2022-12-08T02:55:28.258Z,20.93
2022-12-08T02:58:13.872Z,32.97
2022-12-08T03:01:19.663Z,24.20
2022-12-08T03:03:52.305Z,23.70
2022-12-08T03:06:46.883Z,14.10
2022-12-08T03:09:34.964Z,18.00
2022-12-08T03:12:14.505Z,15.97
2022-12-08T03:14:47.134Z,15.23
2022-12-08T03:17:16.288Z,16.93
2022-12-08T03:19:46.018Z,18.00
2022-12-08T03:22:16.879Z,18.03
2022-12-08T03:24:46.566Z,15.87
2022-12-08T03:27:19.850Z,12.97
2022-12-08T03:29:48.850Z,13.60
2022-12-08T03:32:36.007Z,14.93
2022-12-08T03:35:11.595Z,14.13
2022-12-08T03:37:40.259Z,11.97
2022-12-08T03:40:10.123Z,11.20
2022-12-08T03:42:37.619Z,11.10
2022-12-08T03:45:06.232Z,10.43
2022-12-08T03:47:34.174Z,10.10
2022-12-08T03:50:01.852Z,10.80
2022-12-08T03:52:29.421Z,10.03
2022-12-08T03:54:56.763Z,11.50
2022-12-08T03:57:23.995Z,12.07
2022-12-08T03:59:52.235Z,11.20
2022-12-08T04:02:19.645Z,10.23
2022-12-08T04:04:47.329Z,11.17
2022-12-08T04:07:14.587Z,13.43
2022-12-08T04:09:42.444Z,12.80
2022-12-08T04:12:10.207Z,13.87
2022-12-08T04:14:40.557Z,11.13
2022-12-08T04:17:08.129Z,11.13
2022-12-08T04:19:37.148Z,11.70
2022-12-08T04:22:04.514Z,16.20
2022-12-08T04:24:31.758Z,15.77
2022-12-08T04:26:59.188Z,15.87
2022-12-08T04:29:26.436Z,14.30
2022-12-08T04:31:56.641Z,12.30
2022-12-08T04:34:24.046Z,20.97
2022-12-08T04:36:51.334Z,13.77
2022-12-08T04:39:18.685Z,15.27
2022-12-08T04:41:46.279Z,18.70
2022-12-08T04:44:13.843Z,24.37
2022-12-08T04:46:43.650Z,16.73
2022-12-08T04:49:11.520Z,18.33
2022-12-08T04:51:39.321Z,27.13
2022-12-08T04:54:07.036Z,35.20
2022-12-08T04:56:34.482Z,28.40
2022-12-08T04:59:01.890Z,22.53
2022-12-08T05:01:29.251Z,35.13
2022-12-08T05:03:57.147Z,30.43
2022-12-08T05:06:24.789Z,22.23
2022-12-08T05:08:52.210Z,17.63
2022-12-08T05:11:19.973Z,16.00
2022-12-08T05:13:47.641Z,17.00
2022-12-08T05:16:16.778Z,16.70
2022-12-08T05:18:48.746Z,15.00
2022-12-08T05:21:16.017Z,12.07
2022-12-08T05:23:44.480Z,14.37
2022-12-08T05:26:11.843Z,16.37
2022-12-08T05:28:41.862Z,43.57
2022-12-08T05:31:11.648Z,21.03
2022-12-08T05:33:39.337Z,19.17
2022-12-08T05:36:07.890Z,20.93
2022-12-08T05:38:35.263Z,24.63
2022-12-08T05:41:04.585Z,31.73
2022-12-08T05:43:31.863Z,34.37
2022-12-08T05:45:59.601Z,26.80
2022-12-08T05:48:27.255Z,16.47
2022-12-08T05:50:54.497Z,26.87
2022-12-08T05:53:22.106Z,13.97
2022-12-08T05:55:49.385Z,15.27
2022-12-08T05:58:19.176Z,16.60
2022-12-08T06:00:51.166Z,23.57
2022-12-08T06:03:20.114Z,28.10
2022-12-08T06:05:48.151Z,24.90
2022-12-08T06:08:16.784Z,24.90
2022-12-08T06:10:45.419Z,20.20
2022-12-08T06:13:13.467Z,18.70
2022-12-08T06:15:41.761Z,18.37
2022-12-08T06:18:10.340Z,17.23
2022-12-08T06:20:37.895Z,26.33
2022-12-08T06:23:05.785Z,17.30
2022-12-08T06:25:33.018Z,20.10
2022-12-08T06:28:00.348Z,31.10
2022-12-08T06:30:29.380Z,30.93
2022-12-08T06:32:56.928Z,37.03
2022-12-08T06:35:24.565Z,26.90
2022-12-08T06:37:52.029Z,28.17
2022-12-08T06:40:19.422Z,26.23
2022-12-08T06:42:49.488Z,32.13
2022-12-08T06:45:18.296Z,115.30
2022-12-08T06:47:45.641Z,85.67
2022-12-08T06:50:14.250Z,97.13
2022-12-08T06:52:54.295Z,152.20
2022-12-08T06:55:42.997Z,77.57
2022-12-08T06:58:12.489Z,113.03
2022-12-08T07:00:40.616Z,110.97
2022-12-08T07:03:10.730Z,42.23
2022-12-08T07:05:39.342Z,25.50
2022-12-08T07:08:08.615Z,27.00
2022-12-08T07:10:36.503Z,21.70
2022-12-08T07:13:04.209Z,26.53
2022-12-08T07:15:31.615Z,15.33
2022-12-08T07:18:00.258Z,22.00
2022-12-08T07:20:28.476Z,19.70
2022-12-08T07:22:56.397Z,19.23
2022-12-08T07:25:27.338Z,46.67
2022-12-08T07:27:54.637Z,79.07
2022-12-08T07:30:22.280Z,43.17
2022-12-08T07:32:49.887Z,73.10
2022-12-08T07:35:17.300Z,47.70
2022-12-08T07:37:44.590Z,31.93
2022-12-08T07:40:13.042Z,32.23
2022-12-08T07:42:40.393Z,23.63
2022-12-08T07:45:08.343Z,20.23
2022-12-08T07:47:35.669Z,20.67
2022-12-08T07:50:03.400Z,21.33
2022-12-08T07:52:31.382Z,18.97
2022-12-08T07:54:58.865Z,16.60
2022-12-08T07:57:26.265Z,18.83
2022-12-08T07:59:53.552Z,20.40
2022-12-08T08:02:24.951Z,24.73
2022-12-08T08:04:53.845Z,39.50
2022-12-08T08:07:21.501Z,24.53
2022-12-08T08:09:48.943Z,40.80
2022-12-08T08:12:31.236Z,27.77
2022-12-08T08:15:00.518Z,17.93
2022-12-08T08:17:28.883Z,19.50
2022-12-08T08:19:56.377Z,15.50
2022-12-08T08:22:24.659Z,21.10
2022-12-08T08:24:52.022Z,21.07
2022-12-08T08:27:19.558Z,16.13
2022-12-08T08:29:47.035Z,17.50
2022-12-08T08:32:14.259Z,15.20
2022-12-08T08:34:41.538Z,13.73
2022-12-08T08:37:09.054Z,13.80
2022-12-08T08:39:36.576Z,12.97
2022-12-08T08:42:04.108Z,13.90
2022-12-08T08:44:31.435Z,28.20
2022-12-08T08:46:58.906Z,30.20
2022-12-08T08:49:26.324Z,29.63
2022-12-08T08:51:53.538Z,28.47
2022-12-08T08:54:20.900Z,22.47
2022-12-08T08:56:48.715Z,19.07
2022-12-08T08:59:15.989Z,20.70
2022-12-08T09:01:43.292Z,18.87
2022-12-08T09:04:11.104Z,17.80
2022-12-08T09:06:38.541Z,19.70
2022-12-08T09:09:06.286Z,17.03
2022-12-08T09:11:36.760Z,16.57
2022-12-08T09:14:04.427Z,16.40
2022-12-08T09:16:35.057Z,14.97
2022-12-08T09:19:04.988Z,14.57
2022-12-08T09:21:32.303Z,13.80
2022-12-08T09:23:59.890Z,13.73
2022-12-08T09:26:28.900Z,14.53
2022-12-08T09:28:57.396Z,14.37
2022-12-08T09:31:25.446Z,12.57
2022-12-08T09:33:53.440Z,15.37
2022-12-08T09:36:21.362Z,16.40
2022-12-08T09:38:49.453Z,16.33
2022-12-08T09:41:56.947Z,14.10
2022-12-08T09:44:44.356Z,17.00
2022-12-08T09:47:47.371Z,14.30
2022-12-08T09:50:35.536Z,12.23
2022-12-08T09:53:50.113Z,11.93
2022-12-08T09:56:22.991Z,13.73
2022-12-08T09:59:08.864Z,15.40
2022-12-08T10:01:42.147Z,17.13
2022-12-08T10:04:45.101Z,16.00
2022-12-08T10:07:23.917Z,14.27
2022-12-08T10:10:18.904Z,17.63
2022-12-08T10:13:02.674Z,16.53
2022-12-08T10:15:44.495Z,16.53
2022-12-08T10:18:23.377Z,28.80
2022-12-08T10:20:53.684Z,13.73
2022-12-08T10:23:51.677Z,33.43
2022-12-08T10:26:21.881Z,14.13
2022-12-08T10:28:49.827Z,14.70
2022-12-08T10:31:23.375Z,13.03
2022-12-08T10:33:59.615Z,12.50
2022-12-08T10:36:51.173Z,14.20
2022-12-08T10:39:32.025Z,14.47
2022-12-08T10:42:23.050Z,14.57
2022-12-08T10:45:09.212Z,16.30
2022-12-08T10:47:43.702Z,16.70
2022-12-08T10:50:45.117Z,15.03
2022-12-08T10:53:25.443Z,15.13
2022-12-08T10:56:14.026Z,17.53
2022-12-08T10:58:44.012Z,19.33
2022-12-08T11:01:15.717Z,38.57
2022-12-08T11:03:54.700Z,21.07
2022-12-08T11:06:30.731Z,19.63
2022-12-08T11:09:22.244Z,18.03
2022-12-08T11:11:59.257Z,16.03
2022-12-08T11:14:33.557Z,14.40
2022-12-08T11:17:08.559Z,14.73
2022-12-08T11:19:55.543Z,18.70
2022-12-08T11:22:29.929Z,64.93
2022-12-08T11:25:07.826Z,30.50
2022-12-08T11:27:37.295Z,23.70
2022-12-08T11:30:14.811Z,29.43
2022-12-08T11:32:45.087Z,62.47
2022-12-08T11:35:32.512Z,35.17
2022-12-08T11:38:21.096Z,40.83
2022-12-08T11:40:54.083Z,47.97
2022-12-08T11:43:34.093Z,45.47
2022-12-08T11:46:16.079Z,32.73
2022-12-08T11:49:12.675Z,45.17
2022-12-08T11:52:00.483Z,52.40
2022-12-08T11:54:37.285Z,45.10
2022-12-08T11:57:09.048Z,34.90
2022-12-08T11:59:44.814Z,51.87
2022-12-08T12:02:34.745Z,20.90
2022-12-08T12:05:09.298Z,42.23
2022-12-08T12:08:01.313Z,40.40
2022-12-08T12:10:43.545Z,44.80
2022-12-08T12:13:22.364Z,34.57
2022-12-08T12:16:05.401Z,36.73
2022-12-08T12:18:47.412Z,28.53
2022-12-08T12:21:20.626Z,22.53
2022-12-08T12:23:48.154Z,29.17
2022-12-08T12:26:56.467Z,26.80
2022-12-08T12:29:26.808Z,20.47
2022-12-08T12:32:01.579Z,21.67
2022-12-08T12:34:37.765Z,28.00
2022-12-08T12:37:22.046Z,29.47
2022-12-08T12:40:07.601Z,30.63
2022-12-08T12:42:43.192Z,42.30
2022-12-08T12:45:22.718Z,35.47
2022-12-08T12:47:57.675Z,25.50
2022-12-08T12:50:33.959Z,35.80
2022-12-08T12:53:27.245Z,30.77
2022-12-08T12:55:57.829Z,28.70
2022-12-08T12:58:31.092Z,37.80
2022-12-08T13:01:22.024Z,28.57
2022-12-08T13:04:02.833Z,36.73
2022-12-08T13:06:49.662Z,33.07
2022-12-08T13:09:30.099Z,20.03
2022-12-08T13:12:01.731Z,17.20
2022-12-08T13:14:32.333Z,20.93
2022-12-08T13:17:02.603Z,12.53
2022-12-08T13:19:32.708Z,13.90
2022-12-08T13:22:00.809Z,14.40
2022-12-08T13:24:30.480Z,16.57
2022-12-08T13:27:07.105Z,28.07
2022-12-08T13:29:38.836Z,149.10
2022-12-08T13:32:30.675Z,39.03
2022-12-08T13:35:04.664Z,13.07
2022-12-08T13:37:53.945Z,34.47
2022-12-08T13:40:30.740Z,23.83
2022-12-08T13:43:15.588Z,22.17
2022-12-08T13:46:57.540Z,20.73
2022-12-08T13:49:41.924Z,18.63
2022-12-08T13:55:13.596Z,16.17
2022-12-08T13:57:34.241Z,15.77
2022-12-08T14:00:19.290Z,15.70
2022-12-08T14:02:49.056Z,16.40
2022-12-08T14:05:35.221Z,19.70
2022-12-08T14:09:06.947Z,15.77
2022-12-08T14:11:39.185Z,18.63
2022-12-08T14:14:53.654Z,21.93
2022-12-08T14:17:13.535Z,19.13
2022-12-08T14:19:44.531Z,25.57
2022-12-08T14:22:17.688Z,30.87
2022-12-08T14:24:53.722Z,19.70
2022-12-08T14:27:25.042Z,22.07
2022-12-08T14:30:08.378Z,20.77
2022-12-08T14:32:43.877Z,25.63
2022-12-08T14:35:15.850Z,31.70
2022-12-08T14:37:51.833Z,43.37
2022-12-08T14:40:23.142Z,34.63
2022-12-08T14:43:10.610Z,35.37
2022-12-08T14:45:44.154Z,30.30
2022-12-08T14:48:36.665Z,25.70
2022-12-08T14:51:04.244Z,23.87
2022-12-08T14:53:38.293Z,27.47
2022-12-08T14:56:23.393Z,36.37
2022-12-08T14:59:23.360Z,32.50
2022-12-08T15:01:53.870Z,29.87
2022-12-08T15:04:27.380Z,32.07
2022-12-08T15:07:17.054Z,35.43
2022-12-08T15:09:48.741Z,30.20
2022-12-08T15:12:16.179Z,38.57
2022-12-08T15:14:56.460Z,32.70
2022-12-08T15:17:46.954Z,58.03
2022-12-08T15:20:34.806Z,85.73
2022-12-08T15:23:03.102Z,66.57
2022-12-08T15:25:30.619Z,53.80
2022-12-08T15:27:58.418Z,49.43
2022-12-08T15:30:28.952Z,47.10
2022-12-08T15:32:56.676Z,46.47
2022-12-08T15:35:23.984Z,52.70
2022-12-08T15:37:51.399Z,51.00
2022-12-08T15:40:21.636Z,71.60
2022-12-08T15:42:49.174Z,97.93
2022-12-08T15:45:23.872Z,89.77
2022-12-08T15:47:51.096Z,60.20
2022-12-08T15:50:21.252Z,53.33
2022-12-08T15:52:49.699Z,63.60
2022-12-08T15:55:22.307Z,77.80
2022-12-08T15:58:44.998Z,80.57
2022-12-08T16:00:52.432Z,74.50
2022-12-08T16:04:19.925Z,77.90
2022-12-08T16:09:36.802Z,81.37
2022-12-08T16:12:24.653Z,97.67
2022-12-08T16:17:41.088Z,90.30
2022-12-08T16:20:13.890Z,99.17
2022-12-08T16:22:56.355Z,111.33
2022-12-08T16:25:36.359Z,148.57
2022-12-08T16:28:45.384Z,167.70
2022-12-08T16:31:01.611Z,192.17
2022-12-08T16:33:32.306Z,162.13
2022-12-08T16:36:00.956Z,186.33
2022-12-08T16:38:28.325Z,162.40
2022-12-08T16:41:14.208Z,128.97
2022-12-08T16:43:41.643Z,91.60
2022-12-08T16:46:19.295Z,87.53
2022-12-08T16:48:46.663Z,96.13
2022-12-08T16:51:23.433Z,55.87
2022-12-08T16:53:54.609Z,56.53
2022-12-08T16:56:26.372Z,65.27
2022-12-08T16:58:59.537Z,67.20
2022-12-08T17:01:27.197Z,116.50
2022-12-08T17:04:30.010Z,191.77
2022-12-08T17:06:42.180Z,139.27
2022-12-08T17:09:09.470Z,127.53
2022-12-08T17:11:42.949Z,130.30
2022-12-08T17:14:12.798Z,136.43
2022-12-08T17:16:40.837Z,131.73
2022-12-08T17:19:08.856Z,111.50
2022-12-08T17:21:36.874Z,112.87
2022-12-08T17:24:05.163Z,96.17
2022-12-08T17:26:32.679Z,92.20
2022-12-08T17:29:01.872Z,92.17
2022-12-08T17:31:31.461Z,93.77
2022-12-08T17:34:04.342Z,96.57
2022-12-08T17:36:32.102Z,91.20
2022-12-08T17:39:01.450Z,104.43
2022-12-08T17:41:29.801Z,136.40
2022-12-08T17:43:57.439Z,165.40
2022-12-08T17:46:25.294Z,158.67
2022-12-08T17:48:53.606Z,172.60
2022-12-08T17:51:21.655Z,146.53
2022-12-08T17:53:54.439Z,133.73
2022-12-08T17:56:22.171Z,145.03
2022-12-08T17:58:54.355Z,112.70
2022-12-08T18:01:23.525Z,62.40
2022-12-08T18:03:51.337Z,57.17
2022-12-08T18:06:21.150Z,115.30
2022-12-08T18:08:48.603Z,153.43
2022-12-08T18:11:19.402Z,102.87
2022-12-08T18:13:48.375Z,77.37
2022-12-08T18:16:17.176Z,71.87
2022-12-08T18:18:44.807Z,66.73
2022-12-08T18:21:12.401Z,55.20
2022-12-08T18:23:41.306Z,77.73
2022-12-08T18:26:12.091Z,92.70
2022-12-08T18:28:39.977Z,115.47
2022-12-08T18:31:16.687Z,100.43
2022-12-08T18:33:45.650Z,86.83
2022-12-08T18:36:19.125Z,61.80
2022-12-08T18:38:46.804Z,63.20
2022-12-08T18:41:17.374Z,53.77
2022-12-08T18:43:44.883Z,52.80
2022-12-08T18:46:14.387Z,47.57
2022-12-08T18:48:44.530Z,154.97
2022-12-08T18:51:13.878Z,146.83
2022-12-08T18:53:41.651Z,99.03
2022-12-08T18:56:09.360Z,141.80
2022-12-08T18:58:36.635Z,115.40
2022-12-08T19:01:04.339Z,80.77
2022-12-08T19:03:31.943Z,66.77
2022-12-08T19:06:08.827Z,61.87
2022-12-08T19:08:36.363Z,47.93
2022-12-08T19:11:03.781Z,43.20
2022-12-08T19:13:31.117Z,38.87
2022-12-08T19:15:58.399Z,45.03
2022-12-08T19:18:25.839Z,57.27
2022-12-08T19:20:56.999Z,84.07
2022-12-08T19:23:24.403Z,84.47
2022-12-08T19:25:55.043Z,79.30
2022-12-08T19:28:23.471Z,110.77
2022-12-08T19:30:52.496Z,72.07
2022-12-08T19:33:20.319Z,75.90
2022-12-08T19:35:52.658Z,97.53
2022-12-08T19:38:20.538Z,64.37
2022-12-08T19:41:06.412Z,83.67
2022-12-08T19:43:52.139Z,70.83
2022-12-08T19:46:20.598Z,80.97
2022-12-08T19:48:48.209Z,66.27
2022-12-08T19:51:15.612Z,50.47
2022-12-08T19:53:47.380Z,67.53
2022-12-08T19:56:15.188Z,74.40
2022-12-08T19:58:42.521Z,80.73
2022-12-08T20:01:10.051Z,80.10
2022-12-08T20:03:37.664Z,78.13
2022-12-08T20:06:05.271Z,69.50
2022-12-08T20:08:32.711Z,55.20
2022-12-08T20:11:00.687Z,47.33
2022-12-08T20:13:46.085Z,65.20
2022-12-08T20:16:14.594Z,122.73
2022-12-08T20:18:42.819Z,141.73
2022-12-08T20:21:12.465Z,202.87
2022-12-08T20:23:43.256Z,62.57
2022-12-08T20:26:15.255Z,58.47
2022-12-08T20:28:42.538Z,56.50
2022-12-08T20:31:21.994Z,51.00
2022-12-08T20:33:49.756Z,44.20
2022-12-08T20:36:19.335Z,47.73
2022-12-08T20:38:48.762Z,47.20
2022-12-08T20:41:17.795Z,58.23
2022-12-08T20:43:46.897Z,88.77
2022-12-08T20:46:17.805Z,83.13
2022-12-08T20:48:45.602Z,87.17
2022-12-08T20:51:15.023Z,89.43
2022-12-08T20:53:42.536Z,138.73
2022-12-08T20:56:16.038Z,112.00
2022-12-08T20:58:43.792Z,152.83
2022-12-08T21:01:13.258Z,139.80
2022-12-08T21:03:41.444Z,118.10
2022-12-08T21:06:09.252Z,95.90
2022-12-08T21:08:37.205Z,98.37
2022-12-08T21:11:06.501Z,94.30
2022-12-08T21:13:34.298Z,90.50
2022-12-08T21:16:01.955Z,90.70
2022-12-08T21:18:32.171Z,87.20
2022-12-08T21:21:07.718Z,82.93
2022-12-08T21:23:35.915Z,90.27
2022-12-08T21:26:03.517Z,97.00
2022-12-08T21:28:30.976Z,125.63
2022-12-08T21:30:58.319Z,121.07
2022-12-08T21:33:25.822Z,117.77
2022-12-08T21:36:02.874Z,145.53
2022-12-08T21:38:30.384Z,86.50
2022-12-08T21:41:03.181Z,74.33
2022-12-08T21:43:31.326Z,85.10
2022-12-08T21:45:58.937Z,106.50
2022-12-08T21:48:29.696Z,100.80
2022-12-08T21:50:57.572Z,87.80
2022-12-08T21:53:28.442Z,91.63
2022-12-08T21:55:55.717Z,80.80
2022-12-08T21:58:22.973Z,83.23
2022-12-08T22:00:50.606Z,82.63
2022-12-08T22:03:18.329Z,89.30
2022-12-08T22:05:46.038Z,93.73
2022-12-08T22:08:13.719Z,106.33
2022-12-08T22:10:41.380Z,107.43
2022-12-08T22:13:08.957Z,114.43
2022-12-08T22:15:36.383Z,111.30
2022-12-08T22:18:04.329Z,151.40
2022-12-08T22:20:31.817Z,120.87
2022-12-08T22:22:59.364Z,131.07
2022-12-08T22:25:29.854Z,115.27
2022-12-08T22:27:57.437Z,120.43
2022-12-08T22:30:25.099Z,109.63
2022-12-08T22:32:52.987Z,102.17
2022-12-08T22:35:20.986Z,89.90
2022-12-08T22:37:52.580Z,61.27
2022-12-08T22:40:20.154Z,84.70
2022-12-08T22:42:47.737Z,78.20
2022-12-08T22:45:15.641Z,86.47
2022-12-08T22:47:43.372Z,87.13
2022-12-08T22:50:11.526Z,100.00
2022-12-08T22:52:39.182Z,60.60
2022-12-08T22:55:07.466Z,47.70
2022-12-08T22:57:34.835Z,51.67
2022-12-08T23:00:02.700Z,61.10
2022-12-08T23:02:30.146Z,49.23
2022-12-08T23:04:57.870Z,45.17
2022-12-08T23:07:25.270Z,41.40
2022-12-08T23:09:52.826Z,45.67
2022-12-08T23:12:20.500Z,53.23
2022-12-08T23:14:48.354Z,68.27
2022-12-08T23:17:15.803Z,55.57
2022-12-08T23:19:43.227Z,50.33
2022-12-08T23:22:10.553Z,41.73
2022-12-08T23:24:38.096Z,42.30
2022-12-08T23:27:05.544Z,47.27
2022-12-08T23:30:22.738Z,49.07
2022-12-08T23:32:50.253Z,40.53
2022-12-08T23:35:17.936Z,40.97
2022-12-08T23:37:45.478Z,39.77
2022-12-08T23:40:13.001Z,42.40
2022-12-08T23:42:40.595Z,40.73
2022-12-08T23:45:09.041Z,40.47
2022-12-08T23:47:37.049Z,39.27
2022-12-08T23:50:05.535Z,44.93
2022-12-08T23:52:33.323Z,45.30
2022-12-08T23:55:00.928Z,46.60
2022-12-08T23:57:28.322Z,46.20
2022-12-08T23:59:55.526Z,41.17
